sensor_id;sensor_type;location;lat;lon;timestamp;temperature;humidity
45491;DHT22;31237;45.586;13.782;2023-04-01T00:01:32;10.00;95.20
45491;DHT22;31237;45.586;13.782;2023-04-01T00:03:58;10.00;95.20
45491;DHT22;31237;45.586;13.782;2023-04-01T00:06:24;10.00;95.10
45491;DHT22;31237;45.586;13.782;2023-04-01T00:08:50;10.00;95.00
45491;DHT22;31237;45.586;13.782;2023-04-01T00:11:16;10.00;94.90
45491;DHT22;31237;45.586;13.782;2023-04-01T00:13:43;10.00;94.90
45491;DHT22;31237;45.586;13.782;2023-04-01T00:16:09;9.90;94.90
45491;DHT22;31237;45.586;13.782;2023-04-01T00:18:36;9.90;94.80
45491;DHT22;31237;45.586;13.782;2023-04-01T00:21:01;9.90;94.90
45491;DHT22;31237;45.586;13.782;2023-04-01T00:23:27;9.80;94.80
45491;DHT22;31237;45.586;13.782;2023-04-01T00:25:53;9.80;94.80
45491;DHT22;31237;45.586;13.782;2023-04-01T00:28:20;9.70;94.90
45491;DHT22;31237;45.586;13.782;2023-04-01T00:30:48;9.70;94.90
45491;DHT22;31237;45.586;13.782;2023-04-01T00:33:14;9.70;94.90
45491;DHT22;31237;45.586;13.782;2023-04-01T00:35:40;9.60;94.90
45491;DHT22;31237;45.586;13.782;2023-04-01T00:38:07;9.60;94.90
45491;DHT22;31237;45.586;13.782;2023-04-01T00:40:39;9.60;94.90
45491;DHT22;31237;45.586;13.782;2023-04-01T00:43:17;9.50;94.80
45491;DHT22;31237;45.586;13.782;2023-04-01T00:45:47;9.50;94.80
45491;DHT22;31237;45.586;13.782;2023-04-01T00:48:15;9.40;94.80
45491;DHT22;31237;45.586;13.782;2023-04-01T00:50:46;9.40;95.10
45491;DHT22;31237;45.586;13.782;2023-04-01T00:53:13;9.40;94.80
45491;DHT22;31237;45.586;13.782;2023-04-01T00:55:44;9.30;94.80
45491;DHT22;31237;45.586;13.782;2023-04-01T00:58:14;9.30;94.70
45491;DHT22;31237;45.586;13.782;2023-04-01T01:00:42;9.30;94.70
45491;DHT22;31237;45.586;13.782;2023-04-01T01:03:17;9.30;94.70
45491;DHT22;31237;45.586;13.782;2023-04-01T01:08:17;9.20;94.60
45491;DHT22;31237;45.586;13.782;2023-04-01T01:10:49;9.20;94.60
45491;DHT22;31237;45.586;13.782;2023-04-01T01:13:34;9.20;94.60
45491;DHT22;31237;45.586;13.782;2023-04-01T01:16:25;9.20;94.50
45491;DHT22;31237;45.586;13.782;2023-04-01T01:19:08;9.10;94.50
45491;DHT22;31237;45.586;13.782;2023-04-01T01:27:18;9.10;94.70
45491;DHT22;31237;45.586;13.782;2023-04-01T01:37:59;9.10;94.50
45491;DHT22;31237;45.586;13.782;2023-04-01T01:40:27;9.10;94.40
45491;DHT22;31237;45.586;13.782;2023-04-01T01:42:57;9.10;94.30
45491;DHT22;31237;45.586;13.782;2023-04-01T01:45:26;9.20;94.30
45491;DHT22;31237;45.586;13.782;2023-04-01T01:47:54;9.20;94.20
45491;DHT22;31237;45.586;13.782;2023-04-01T01:50:21;9.20;94.20
45491;DHT22;31237;45.586;13.782;2023-04-01T01:52:47;9.20;94.10
45491;DHT22;31237;45.586;13.782;2023-04-01T01:55:33;9.20;94.00
45491;DHT22;31237;45.586;13.782;2023-04-01T01:58:47;9.20;93.90
45491;DHT22;31237;45.586;13.782;2023-04-01T02:00:53;9.20;93.90
45491;DHT22;31237;45.586;13.782;2023-04-01T02:03:21;9.20;93.80
45491;DHT22;31237;45.586;13.782;2023-04-01T02:05:50;9.20;93.60
45491;DHT22;31237;45.586;13.782;2023-04-01T02:08:30;9.30;93.50
45491;DHT22;31237;45.586;13.782;2023-04-01T02:11:02;9.30;93.40
45491;DHT22;31237;45.586;13.782;2023-04-01T02:13:56;9.30;93.30
45491;DHT22;31237;45.586;13.782;2023-04-01T02:16:39;9.30;93.10
45491;DHT22;31237;45.586;13.782;2023-04-01T02:19:10;9.30;93.00
45491;DHT22;31237;45.586;13.782;2023-04-01T02:21:37;9.30;93.00
45491;DHT22;31237;45.586;13.782;2023-04-01T02:24:06;9.20;92.80
45491;DHT22;31237;45.586;13.782;2023-04-01T02:26:34;9.20;92.70
45491;DHT22;31237;45.586;13.782;2023-04-01T02:29:01;9.30;92.70
45491;DHT22;31237;45.586;13.782;2023-04-01T02:31:29;9.30;92.50
45491;DHT22;31237;45.586;13.782;2023-04-01T02:33:56;9.20;92.40
45491;DHT22;31237;45.586;13.782;2023-04-01T02:36:22;9.20;92.40
45491;DHT22;31237;45.586;13.782;2023-04-01T02:38:49;9.20;92.30
45491;DHT22;31237;45.586;13.782;2023-04-01T02:41:16;9.20;92.20
45491;DHT22;31237;45.586;13.782;2023-04-01T02:43:42;9.30;92.30
45491;DHT22;31237;45.586;13.782;2023-04-01T02:46:08;9.30;92.00
45491;DHT22;31237;45.586;13.782;2023-04-01T02:48:34;9.30;91.90
45491;DHT22;31237;45.586;13.782;2023-04-01T02:50:59;9.30;91.80
45491;DHT22;31237;45.586;13.782;2023-04-01T02:53:25;9.30;91.70
45491;DHT22;31237;45.586;13.782;2023-04-01T02:55:51;9.30;91.60
45491;DHT22;31237;45.586;13.782;2023-04-01T02:58:18;9.30;91.50
45491;DHT22;31237;45.586;13.782;2023-04-01T03:00:44;9.30;91.30
45491;DHT22;31237;45.586;13.782;2023-04-01T03:03:10;9.30;91.20
45491;DHT22;31237;45.586;13.782;2023-04-01T03:05:35;9.40;91.20
45491;DHT22;31237;45.586;13.782;2023-04-01T03:08:02;9.40;91.10
45491;DHT22;31237;45.586;13.782;2023-04-01T03:10:27;9.40;91.00
45491;DHT22;31237;45.586;13.782;2023-04-01T03:12:53;9.40;90.90
45491;DHT22;31237;45.586;13.782;2023-04-01T03:15:19;9.40;90.90
45491;DHT22;31237;45.586;13.782;2023-04-01T03:17:45;9.40;90.80
45491;DHT22;31237;45.586;13.782;2023-04-01T03:20:12;9.40;90.80
45491;DHT22;31237;45.586;13.782;2023-04-01T03:22:38;9.40;90.80
45491;DHT22;31237;45.586;13.782;2023-04-01T03:25:05;9.40;90.70
45491;DHT22;31237;45.586;13.782;2023-04-01T03:27:33;9.30;90.70
45491;DHT22;31237;45.586;13.782;2023-04-01T03:29:59;9.30;90.70
45491;DHT22;31237;45.586;13.782;2023-04-01T03:32:25;9.30;90.60
45491;DHT22;31237;45.586;13.782;2023-04-01T03:34:50;9.30;90.60
45491;DHT22;31237;45.586;13.782;2023-04-01T03:37:16;9.30;90.60
45491;DHT22;31237;45.586;13.782;2023-04-01T03:39:42;9.30;90.50
45491;DHT22;31237;45.586;13.782;2023-04-01T03:42:07;9.20;90.50
45491;DHT22;31237;45.586;13.782;2023-04-01T03:44:33;9.20;90.60
45491;DHT22;31237;45.586;13.782;2023-04-01T03:47:00;9.20;90.60
45491;DHT22;31237;45.586;13.782;2023-04-01T03:49:26;9.20;90.60
45491;DHT22;31237;45.586;13.782;2023-04-01T03:51:52;9.10;90.60
45491;DHT22;31237;45.586;13.782;2023-04-01T03:54:18;9.10;90.70
45491;DHT22;31237;45.586;13.782;2023-04-01T03:56:45;9.10;90.70
45491;DHT22;31237;45.586;13.782;2023-04-01T03:59:11;9.10;90.70
45491;DHT22;31237;45.586;13.782;2023-04-01T04:01:37;9.10;90.70
45491;DHT22;31237;45.586;13.782;2023-04-01T04:04:03;9.00;90.60
45491;DHT22;31237;45.586;13.782;2023-04-01T04:06:29;9.00;90.90
45491;DHT22;31237;45.586;13.782;2023-04-01T04:08:54;9.00;90.70
45491;DHT22;31237;45.586;13.782;2023-04-01T04:11:21;9.00;90.60
45491;DHT22;31237;45.586;13.782;2023-04-01T04:13:47;9.00;90.70
45491;DHT22;31237;45.586;13.782;2023-04-01T04:16:14;8.90;90.60
45491;DHT22;31237;45.586;13.782;2023-04-01T04:18:40;8.90;90.60
45491;DHT22;31237;45.586;13.782;2023-04-01T04:21:06;8.90;90.70
45491;DHT22;31237;45.586;13.782;2023-04-01T04:23:32;8.90;90.70
45491;DHT22;31237;45.586;13.782;2023-04-01T04:26:06;8.90;90.80
45491;DHT22;31237;45.586;13.782;2023-04-01T04:28:32;8.90;90.80
45491;DHT22;31237;45.586;13.782;2023-04-01T04:30:59;8.90;90.80
45491;DHT22;31237;45.586;13.782;2023-04-01T04:33:25;8.80;90.70
45491;DHT22;31237;45.586;13.782;2023-04-01T04:35:54;8.90;90.70
45491;DHT22;31237;45.586;13.782;2023-04-01T04:38:20;8.80;90.70
45491;DHT22;31237;45.586;13.782;2023-04-01T04:40:45;8.80;90.70
45491;DHT22;31237;45.586;13.782;2023-04-01T04:43:13;8.80;90.60
45491;DHT22;31237;45.586;13.782;2023-04-01T04:45:40;8.80;90.60
45491;DHT22;31237;45.586;13.782;2023-04-01T04:48:10;8.80;90.60
45491;DHT22;31237;45.586;13.782;2023-04-01T04:50:41;8.80;90.60
45491;DHT22;31237;45.586;13.782;2023-04-01T04:53:12;8.70;90.50
45491;DHT22;31237;45.586;13.782;2023-04-01T04:55:49;8.70;90.50
45491;DHT22;31237;45.586;13.782;2023-04-01T04:58:16;8.70;90.50
45491;DHT22;31237;45.586;13.782;2023-04-01T05:00:42;8.70;90.50
45491;DHT22;31237;45.586;13.782;2023-04-01T05:03:07;8.60;90.40
45491;DHT22;31237;45.586;13.782;2023-04-01T05:05:34;8.60;90.50
45491;DHT22;31237;45.586;13.782;2023-04-01T05:08:00;8.60;90.50
45491;DHT22;31237;45.586;13.782;2023-04-01T05:10:25;8.60;90.50
45491;DHT22;31237;45.586;13.782;2023-04-01T05:12:51;8.50;90.60
45491;DHT22;31237;45.586;13.782;2023-04-01T05:15:17;8.50;90.70
45491;DHT22;31237;45.586;13.782;2023-04-01T05:17:42;8.50;90.70
45491;DHT22;31237;45.586;13.782;2023-04-01T05:20:08;8.50;90.70
45491;DHT22;31237;45.586;13.782;2023-04-01T05:22:34;8.50;90.70
45491;DHT22;31237;45.586;13.782;2023-04-01T05:25:00;8.60;90.80
45491;DHT22;31237;45.586;13.782;2023-04-01T05:27:25;8.60;90.80
45491;DHT22;31237;45.586;13.782;2023-04-01T05:29:51;8.60;90.80
45491;DHT22;31237;45.586;13.782;2023-04-01T05:32:17;8.60;90.80
45491;DHT22;31237;45.586;13.782;2023-04-01T05:34:42;8.70;90.80
45491;DHT22;31237;45.586;13.782;2023-04-01T05:37:08;8.80;90.80
45491;DHT22;31237;45.586;13.782;2023-04-01T05:39:38;8.80;90.70
45491;DHT22;31237;45.586;13.782;2023-04-01T05:42:06;8.90;90.60
45491;DHT22;31237;45.586;13.782;2023-04-01T05:44:32;9.00;90.60
45491;DHT22;31237;45.586;13.782;2023-04-01T05:46:57;9.00;90.60
45491;DHT22;31237;45.586;13.782;2023-04-01T05:49:23;9.10;90.50
45491;DHT22;31237;45.586;13.782;2023-04-01T05:51:48;9.20;90.40
45491;DHT22;31237;45.586;13.782;2023-04-01T05:54:14;9.20;90.30
45491;DHT22;31237;45.586;13.782;2023-04-01T05:56:40;9.30;90.20
45491;DHT22;31237;45.586;13.782;2023-04-01T05:59:05;9.40;90.10
45491;DHT22;31237;45.586;13.782;2023-04-01T06:01:31;9.40;90.00
45491;DHT22;31237;45.586;13.782;2023-04-01T06:03:57;9.50;90.00
45491;DHT22;31237;45.586;13.782;2023-04-01T06:06:27;9.60;90.00
45491;DHT22;31237;45.586;13.782;2023-04-01T06:08:56;9.60;90.00
45491;DHT22;31237;45.586;13.782;2023-04-01T06:11:32;9.60;90.10
45491;DHT22;31237;45.586;13.782;2023-04-01T06:14:24;9.70;90.20
45491;DHT22;31237;45.586;13.782;2023-04-01T06:30:41;10.20;89.60
45491;DHT22;31237;45.586;13.782;2023-04-01T06:39:30;10.40;89.60
45491;DHT22;31237;45.586;13.782;2023-04-01T06:50:53;10.50;90.40
45491;DHT22;31237;45.586;13.782;2023-04-01T06:55:48;10.70;90.70
45491;DHT22;31237;45.586;13.782;2023-04-01T06:58:22;10.70;90.80
45491;DHT22;31237;45.586;13.782;2023-04-01T07:00:54;10.80;90.80
45491;DHT22;31237;45.586;13.782;2023-04-01T07:05:51;11.10;90.90
45491;DHT22;31237;45.586;13.782;2023-04-01T07:08:22;11.20;90.80
45491;DHT22;31237;45.586;13.782;2023-04-01T07:11:00;11.30;90.70
45491;DHT22;31237;45.586;13.782;2023-04-01T07:13:41;11.40;90.60
45491;DHT22;31237;45.586;13.782;2023-04-01T07:18:52;11.60;90.40
45491;DHT22;31237;45.586;13.782;2023-04-01T07:21:30;11.80;90.30
45491;DHT22;31237;45.586;13.782;2023-04-01T07:24:01;11.90;90.10
45491;DHT22;31237;45.586;13.782;2023-04-01T07:26:28;12.00;89.60
45491;DHT22;31237;45.586;13.782;2023-04-01T07:28:54;12.10;89.20
45491;DHT22;31237;45.586;13.782;2023-04-01T07:34:09;12.40;88.10
45491;DHT22;31237;45.586;13.782;2023-04-01T07:36:53;12.50;87.80
45491;DHT22;31237;45.586;13.782;2023-04-01T07:42:16;12.70;87.00
45491;DHT22;31237;45.586;13.782;2023-04-01T07:50:31;13.10;85.80
45491;DHT22;31237;45.586;13.782;2023-04-01T08:04:25;13.60;84.30
45491;DHT22;31237;45.586;13.782;2023-04-01T08:07:07;13.70;84.10
45491;DHT22;31237;45.586;13.782;2023-04-01T08:09:45;13.80;83.70
45491;DHT22;31237;45.586;13.782;2023-04-01T08:15:23;14.00;82.70
45491;DHT22;31237;45.586;13.782;2023-04-01T08:20:26;14.00;81.60
45491;DHT22;31237;45.586;13.782;2023-04-01T08:23:22;13.90;81.80
45491;DHT22;31237;45.586;13.782;2023-04-01T08:25:54;13.90;82.00
45491;DHT22;31237;45.586;13.782;2023-04-01T08:30:58;14.10;82.50
45491;DHT22;31237;45.586;13.782;2023-04-01T08:33:30;14.20;81.70
45491;DHT22;31237;45.586;13.782;2023-04-01T08:38:33;14.30;81.40
45491;DHT22;31237;45.586;13.782;2023-04-01T09:07:04;14.30;81.00
45491;DHT22;31237;45.586;13.782;2023-04-01T09:20:30;14.30;81.70
45491;DHT22;31237;45.586;13.782;2023-04-01T09:23:17;14.30;81.80
45491;DHT22;31237;45.586;13.782;2023-04-01T09:28:59;14.30;82.20
45491;DHT22;31237;45.586;13.782;2023-04-01T09:37:34;14.60;82.70
45491;DHT22;31237;45.586;13.782;2023-04-01T09:40:09;14.70;82.40
45491;DHT22;31237;45.586;13.782;2023-04-01T09:42:45;14.70;81.70
45491;DHT22;31237;45.586;13.782;2023-04-01T09:48:10;14.80;79.70
45491;DHT22;31237;45.586;13.782;2023-04-01T09:50:53;14.70;80.40
45491;DHT22;31237;45.586;13.782;2023-04-01T10:20:44;15.40;83.10
45491;DHT22;31237;45.586;13.782;2023-04-01T10:36:53;15.80;78.60
45491;DHT22;31237;45.586;13.782;2023-04-01T10:51:16;15.90;78.80
45491;DHT22;31237;45.586;13.782;2023-04-01T10:56:42;16.00;78.40
45491;DHT22;31237;45.586;13.782;2023-04-01T11:22:29;16.30;75.90
45491;DHT22;31237;45.586;13.782;2023-04-01T11:28:05;16.30;75.90
45491;DHT22;31237;45.586;13.782;2023-04-01T11:33:23;16.40;76.00
45491;DHT22;31237;45.586;13.782;2023-04-01T11:35:55;16.40;75.40
45491;DHT22;31237;45.586;13.782;2023-04-01T11:44:17;16.50;76.00
45491;DHT22;31237;45.586;13.782;2023-04-01T12:06:14;16.50;73.00
45491;DHT22;31237;45.586;13.782;2023-04-01T12:16:58;16.50;74.40
45491;DHT22;31237;45.586;13.782;2023-04-01T12:46:13;16.40;75.10
45491;DHT22;31237;45.586;13.782;2023-04-01T13:03:04;16.30;77.60
45491;DHT22;31237;45.586;13.782;2023-04-01T13:19:07;16.10;78.60
45491;DHT22;31237;45.586;13.782;2023-04-01T13:24:42;16.00;78.90
45491;DHT22;31237;45.586;13.782;2023-04-01T13:27:34;16.00;78.70
45491;DHT22;31237;45.586;13.782;2023-04-01T13:30:24;15.90;78.20
45491;DHT22;31237;45.586;13.782;2023-04-01T13:44:14;15.60;77.30
45491;DHT22;31237;45.586;13.782;2023-04-01T13:52:26;15.40;76.10
45491;DHT22;31237;45.586;13.782;2023-04-01T13:57:48;15.30;75.80
45491;DHT22;31237;45.586;13.782;2023-04-01T14:03:40;15.20;75.70
45491;DHT22;31237;45.586;13.782;2023-04-01T14:35:38;15.10;80.10
45491;DHT22;31237;45.586;13.782;2023-04-01T14:38:30;15.10;80.00
45491;DHT22;31237;45.586;13.782;2023-04-01T14:47:08;15.20;80.80
45491;DHT22;31237;45.586;13.782;2023-04-01T14:49:40;15.20;80.50
45491;DHT22;31237;45.586;13.782;2023-04-01T14:52:30;15.20;80.80
45491;DHT22;31237;45.586;13.782;2023-04-01T14:54:57;15.20;80.90
45491;DHT22;31237;45.586;13.782;2023-04-01T14:57:25;15.20;81.10
45491;DHT22;31237;45.586;13.782;2023-04-01T15:24:46;15.00;81.40
45491;DHT22;31237;45.586;13.782;2023-04-01T15:27:58;15.00;81.70
45491;DHT22;31237;45.586;13.782;2023-04-01T15:30:27;14.80;82.30
45491;DHT22;31237;45.586;13.782;2023-04-01T15:38:35;14.60;83.70
45491;DHT22;31237;45.586;13.782;2023-04-01T15:41:20;14.50;84.00
45491;DHT22;31237;45.586;13.782;2023-04-01T15:43:49;14.40;84.20
45491;DHT22;31237;45.586;13.782;2023-04-01T15:51:54;14.00;85.50
45491;DHT22;31237;45.586;13.782;2023-04-01T15:57:28;13.80;86.70
45491;DHT22;31237;45.586;13.782;2023-04-01T16:00:30;13.80;86.90
45491;DHT22;31237;45.586;13.782;2023-04-01T16:03:19;13.70;87.00
45491;DHT22;31237;45.586;13.782;2023-04-01T16:17:31;13.40;89.30
45491;DHT22;31237;45.586;13.782;2023-04-01T16:22:38;13.40;90.10
45491;DHT22;31237;45.586;13.782;2023-04-01T16:25:32;13.30;90.20
45491;DHT22;31237;45.586;13.782;2023-04-01T16:30:43;13.30;90.50
45491;DHT22;31237;45.586;13.782;2023-04-01T16:41:18;13.00;90.90
45491;DHT22;31237;45.586;13.782;2023-04-01T16:43:56;12.90;90.80
45491;DHT22;31237;45.586;13.782;2023-04-01T16:49:36;12.80;90.50
45491;DHT22;31237;45.586;13.782;2023-04-01T16:57:31;12.80;90.50
45491;DHT22;31237;45.586;13.782;2023-04-01T17:05:17;12.80;90.30
45491;DHT22;31237;45.586;13.782;2023-04-01T17:08:00;12.80;90.30
45491;DHT22;31237;45.586;13.782;2023-04-01T17:10:52;12.70;90.20
45491;DHT22;31237;45.586;13.782;2023-04-01T17:13:23;12.70;90.20
45491;DHT22;31237;45.586;13.782;2023-04-01T17:16:17;12.60;90.20
45491;DHT22;31237;45.586;13.782;2023-04-01T17:35:31;12.20;90.80
45491;DHT22;31237;45.586;13.782;2023-04-01T17:49:04;11.90;91.00
45491;DHT22;31237;45.586;13.782;2023-04-01T17:51:48;11.90;91.10
45491;DHT22;31237;45.586;13.782;2023-04-01T17:54:30;11.80;91.20
45491;DHT22;31237;45.586;13.782;2023-04-01T18:00:38;11.70;91.40
45491;DHT22;31237;45.586;13.782;2023-04-01T18:22:15;11.30;92.00
45491;DHT22;31237;45.586;13.782;2023-04-01T18:27:37;11.20;92.10
45491;DHT22;31237;45.586;13.782;2023-04-01T18:30:28;11.20;92.10
45491;DHT22;31237;45.586;13.782;2023-04-01T18:33:07;11.20;92.10
45491;DHT22;31237;45.586;13.782;2023-04-01T18:36:08;11.10;92.20
45491;DHT22;31237;45.586;13.782;2023-04-01T18:38:37;11.10;92.30
45491;DHT22;31237;45.586;13.782;2023-04-01T18:52:39;11.00;92.70
45491;DHT22;31237;45.586;13.782;2023-04-01T18:57:52;11.00;92.80
45491;DHT22;31237;45.586;13.782;2023-04-01T19:00:22;10.90;92.80
45491;DHT22;31237;45.586;13.782;2023-04-01T19:03:10;10.90;92.80
45491;DHT22;31237;45.586;13.782;2023-04-01T19:05:44;10.90;92.90
45491;DHT22;31237;45.586;13.782;2023-04-01T19:08:19;10.90;93.00
45491;DHT22;31237;45.586;13.782;2023-04-01T19:16:49;10.80;93.10
45491;DHT22;31237;45.586;13.782;2023-04-01T19:19:46;10.80;93.10
45491;DHT22;31237;45.586;13.782;2023-04-01T19:25:21;10.80;93.30
45491;DHT22;31237;45.586;13.782;2023-04-01T19:28:07;10.70;93.30
45491;DHT22;31237;45.586;13.782;2023-04-01T19:31:04;10.70;93.40
45491;DHT22;31237;45.586;13.782;2023-04-01T19:41:54;10.70;93.70
45491;DHT22;31237;45.586;13.782;2023-04-01T19:44:52;10.70;93.70
45491;DHT22;31237;45.586;13.782;2023-04-01T19:53:15;10.70;93.90
45491;DHT22;31237;45.586;13.782;2023-04-01T19:58:48;10.70;94.00
45491;DHT22;31237;45.586;13.782;2023-04-01T20:04:10;10.70;93.90
45491;DHT22;31237;45.586;13.782;2023-04-01T20:09:54;10.70;93.90
45491;DHT22;31237;45.586;13.782;2023-04-01T20:15:31;10.70;93.90
45491;DHT22;31237;45.586;13.782;2023-04-01T20:18:02;10.70;93.80
45491;DHT22;31237;45.586;13.782;2023-04-01T20:20:30;10.70;93.80
45491;DHT22;31237;45.586;13.782;2023-04-01T20:23:21;10.60;93.80
45491;DHT22;31237;45.586;13.782;2023-04-01T20:25:55;10.70;93.80
45491;DHT22;31237;45.586;13.782;2023-04-01T20:28:30;10.70;93.80
45491;DHT22;31237;45.586;13.782;2023-04-01T20:45:17;10.50;93.70
45491;DHT22;31237;45.586;13.782;2023-04-01T21:07:20;10.50;93.90
45491;DHT22;31237;45.586;13.782;2023-04-01T21:18:00;10.30;93.90
45491;DHT22;31237;45.586;13.782;2023-04-01T21:45:28;10.00;94.00
45491;DHT22;31237;45.586;13.782;2023-04-01T22:05:07;9.60;93.90
45491;DHT22;31237;45.586;13.782;2023-04-01T22:10:41;9.60;94.00
45491;DHT22;31237;45.586;13.782;2023-04-01T22:13:23;9.60;94.00
45491;DHT22;31237;45.586;13.782;2023-04-01T22:18:36;9.50;94.10
45491;DHT22;31237;45.586;13.782;2023-04-01T22:26:42;9.60;94.40
45491;DHT22;31237;45.586;13.782;2023-04-01T22:29:11;9.60;94.40
45491;DHT22;31237;45.586;13.782;2023-04-01T22:31:49;9.60;94.40
45491;DHT22;31237;45.586;13.782;2023-04-01T22:34:26;9.60;94.50
45491;DHT22;31237;45.586;13.782;2023-04-01T22:42:43;9.70;94.70
45491;DHT22;31237;45.586;13.782;2023-04-01T22:47:56;9.70;94.80
45491;DHT22;31237;45.586;13.782;2023-04-01T22:53:32;9.70;94.70
45491;DHT22;31237;45.586;13.782;2023-04-01T22:56:07;9.60;94.60
45491;DHT22;31237;45.586;13.782;2023-04-01T23:01:30;9.50;94.60
45491;DHT22;31237;45.586;13.782;2023-04-01T23:03:59;9.50;94.60
45491;DHT22;31237;45.586;13.782;2023-04-01T23:06:29;9.60;94.60
45491;DHT22;31237;45.586;13.782;2023-04-01T23:09:18;9.50;94.40
45491;DHT22;31237;45.586;13.782;2023-04-01T23:17:13;9.60;94.20
45491;DHT22;31237;45.586;13.782;2023-04-01T23:23:11;9.60;93.90
45491;DHT22;31237;45.586;13.782;2023-04-01T23:25:47;9.60;93.70
45491;DHT22;31237;45.586;13.782;2023-04-01T23:36:13;9.50;93.30
45491;DHT22;31237;45.586;13.782;2023-04-01T23:38:42;9.40;93.20
45491;DHT22;31237;45.586;13.782;2023-04-01T23:41:16;9.40;93.30
45491;DHT22;31237;45.586;13.782;2023-04-01T23:43:44;9.40;93.20
45491;DHT22;31237;45.586;13.782;2023-04-01T23:46:12;9.40;93.20
45491;DHT22;31237;45.586;13.782;2023-04-01T23:48:44;9.40;93.10
45491;DHT22;31237;45.586;13.782;2023-04-01T23:51:23;9.40;93.10
45491;DHT22;31237;45.586;13.782;2023-04-01T23:56:38;9.40;92.90
45491;DHT22;31237;45.586;13.782;2023-04-01T23:59:16;9.40;92.90
